sensor_id;sensor_type;location;lat;lon;timestamp;P1;durP1;ratioP1;P2;durP2;ratioP2
25049;SDS011;13046;49.814;9.918;2024-01-27T00:01:47;19.45;;;10.32;;
25049;SDS011;13046;49.814;9.918;2024-01-27T00:04:13;17.85;;;10.10;;
25049;SDS011;13046;49.814;9.918;2024-01-27T00:06:39;16.83;;;10.95;;
25049;SDS011;13046;49.814;9.918;2024-01-27T00:09:05;18.67;;;10.43;;
25049;SDS011;13046;49.814;9.918;2024-01-27T00:11:31;18.95;;;9.32;;
25049;SDS011;13046;49.814;9.918;2024-01-27T00:13:57;15.65;;;10.20;;
25049;SDS011;13046;49.814;9.918;2024-01-27T00:16:24;17.63;;;9.18;;
25049;SDS011;13046;49.814;9.918;2024-01-27T00:18:50;13.68;;;7.28;;
25049;SDS011;13046;49.814;9.918;2024-01-27T00:21:16;9.88;;;5.72;;
25049;SDS011;13046;49.814;9.918;2024-01-27T00:23:42;12.13;;;6.43;;
25049;SDS011;13046;49.814;9.918;2024-01-27T00:26:08;11.02;;;6.15;;
25049;SDS011;13046;49.814;9.918;2024-01-27T00:28:34;14.35;;;5.97;;
25049;SDS011;13046;49.814;9.918;2024-01-27T00:31:00;11.30;;;4.65;;
25049;SDS011;13046;49.814;9.918;2024-01-27T00:33:27;9.27;;;6.25;;
25049;SDS011;13046;49.814;9.918;2024-01-27T00:35:53;9.40;;;5.20;;
25049;SDS011;13046;49.814;9.918;2024-01-27T00:38:19;9.05;;;4.88;;
25049;SDS011;13046;49.814;9.918;2024-01-27T00:40:45;8.00;;;5.03;;
25049;SDS011;13046;49.814;9.918;2024-01-27T00:43:11;7.75;;;4.55;;
25049;SDS011;13046;49.814;9.918;2024-01-27T00:45:37;6.30;;;4.78;;
25049;SDS011;13046;49.814;9.918;2024-01-27T00:48:04;6.03;;;4.93;;
25049;SDS011;13046;49.814;9.918;2024-01-27T00:50:30;9.55;;;5.47;;
25049;SDS011;13046;49.814;9.918;2024-01-27T00:52:56;8.25;;;4.57;;
25049;SDS011;13046;49.814;9.918;2024-01-27T00:55:22;9.63;;;5.05;;
25049;SDS011;13046;49.814;9.918;2024-01-27T00:57:48;7.97;;;4.85;;
25049;SDS011;13046;49.814;9.918;2024-01-27T01:00:14;10.23;;;5.22;;
25049;SDS011;13046;49.814;9.918;2024-01-27T01:02:40;8.43;;;5.03;;
25049;SDS011;13046;49.814;9.918;2024-01-27T01:05:07;10.70;;;5.68;;
25049;SDS011;13046;49.814;9.918;2024-01-27T01:07:33;13.30;;;5.65;;
25049;SDS011;13046;49.814;9.918;2024-01-27T01:09:59;11.52;;;6.15;;
25049;SDS011;13046;49.814;9.918;2024-01-27T01:12:25;10.40;;;5.47;;
25049;SDS011;13046;49.814;9.918;2024-01-27T01:14:51;8.25;;;5.07;;
25049;SDS011;13046;49.814;9.918;2024-01-27T01:17:17;12.52;;;6.10;;
25049;SDS011;13046;49.814;9.918;2024-01-27T01:19:44;10.85;;;5.07;;
25049;SDS011;13046;49.814;9.918;2024-01-27T01:22:10;6.90;;;4.72;;
25049;SDS011;13046;49.814;9.918;2024-01-27T01:24:36;7.68;;;4.85;;
25049;SDS011;13046;49.814;9.918;2024-01-27T01:27:02;7.60;;;4.32;;
25049;SDS011;13046;49.814;9.918;2024-01-27T01:29:29;7.50;;;4.53;;
25049;SDS011;13046;49.814;9.918;2024-01-27T01:31:55;5.95;;;4.10;;
25049;SDS011;13046;49.814;9.918;2024-01-27T01:34:21;9.88;;;5.75;;
25049;SDS011;13046;49.814;9.918;2024-01-27T01:36:47;7.13;;;4.53;;
25049;SDS011;13046;49.814;9.918;2024-01-27T01:39:13;12.90;;;4.25;;
25049;SDS011;13046;49.814;9.918;2024-01-27T01:41:40;10.35;;;5.82;;
25049;SDS011;13046;49.814;9.918;2024-01-27T01:44:06;8.90;;;5.30;;
25049;SDS011;13046;49.814;9.918;2024-01-27T01:46:33;6.80;;;3.85;;
25049;SDS011;13046;49.814;9.918;2024-01-27T01:48:59;5.82;;;3.78;;
25049;SDS011;13046;49.814;9.918;2024-01-27T01:51:26;8.20;;;4.20;;
25049;SDS011;13046;49.814;9.918;2024-01-27T01:53:52;10.27;;;5.13;;
25049;SDS011;13046;49.814;9.918;2024-01-27T01:56:20;13.50;;;4.40;;
25049;SDS011;13046;49.814;9.918;2024-01-27T01:58:47;8.10;;;3.80;;
25049;SDS011;13046;49.814;9.918;2024-01-27T02:01:13;6.10;;;3.85;;
25049;SDS011;13046;49.814;9.918;2024-01-27T02:03:40;7.15;;;4.72;;
25049;SDS011;13046;49.814;9.918;2024-01-27T02:06:06;11.20;;;4.35;;
25049;SDS011;13046;49.814;9.918;2024-01-27T02:08:32;13.73;;;4.82;;
25049;SDS011;13046;49.814;9.918;2024-01-27T02:10:58;10.75;;;4.53;;
25049;SDS011;13046;49.814;9.918;2024-01-27T02:13:27;7.80;;;4.00;;
25049;SDS011;13046;49.814;9.918;2024-01-27T02:15:53;9.15;;;4.18;;
25049;SDS011;13046;49.814;9.918;2024-01-27T02:18:19;12.68;;;4.75;;
25049;SDS011;13046;49.814;9.918;2024-01-27T02:20:46;14.80;;;4.20;;
25049;SDS011;13046;49.814;9.918;2024-01-27T02:23:12;9.88;;;4.20;;
25049;SDS011;13046;49.814;9.918;2024-01-27T02:25:38;6.68;;;3.67;;
25049;SDS011;13046;49.814;9.918;2024-01-27T02:28:04;10.30;;;5.90;;
25049;SDS011;13046;49.814;9.918;2024-01-27T02:30:30;6.05;;;4.30;;
25049;SDS011;13046;49.814;9.918;2024-01-27T02:32:57;11.52;;;5.95;;
25049;SDS011;13046;49.814;9.918;2024-01-27T02:35:26;6.07;;;4.07;;
25049;SDS011;13046;49.814;9.918;2024-01-27T02:37:52;6.43;;;4.28;;
25049;SDS011;13046;49.814;9.918;2024-01-27T02:40:18;10.05;;;5.72;;
25049;SDS011;13046;49.814;9.918;2024-01-27T02:42:44;10.80;;;4.57;;
25049;SDS011;13046;49.814;9.918;2024-01-27T02:45:10;11.75;;;4.45;;
25049;SDS011;13046;49.814;9.918;2024-01-27T02:47:37;10.15;;;4.10;;
25049;SDS011;13046;49.814;9.918;2024-01-27T02:50:03;6.85;;;3.72;;
25049;SDS011;13046;49.814;9.918;2024-01-27T02:52:31;5.90;;;3.80;;
25049;SDS011;13046;49.814;9.918;2024-01-27T02:54:57;11.07;;;4.90;;
25049;SDS011;13046;49.814;9.918;2024-01-27T02:57:24;11.55;;;4.28;;
25049;SDS011;13046;49.814;9.918;2024-01-27T02:59:50;9.85;;;4.68;;
25049;SDS011;13046;49.814;9.918;2024-01-27T03:02:16;8.15;;;4.10;;
25049;SDS011;13046;49.814;9.918;2024-01-27T03:04:42;7.65;;;3.97;;
25049;SDS011;13046;49.814;9.918;2024-01-27T03:07:08;12.93;;;4.07;;
25049;SDS011;13046;49.814;9.918;2024-01-27T03:09:35;9.50;;;4.60;;
25049;SDS011;13046;49.814;9.918;2024-01-27T03:12:01;14.02;;;4.00;;
25049;SDS011;13046;49.814;9.918;2024-01-27T03:14:28;7.40;;;3.78;;
25049;SDS011;13046;49.814;9.918;2024-01-27T03:16:54;12.15;;;5.50;;
25049;SDS011;13046;49.814;9.918;2024-01-27T03:19:20;8.75;;;4.60;;
25049;SDS011;13046;49.814;9.918;2024-01-27T03:21:47;5.82;;;3.92;;
25049;SDS011;13046;49.814;9.918;2024-01-27T03:24:13;5.93;;;4.00;;
25049;SDS011;13046;49.814;9.918;2024-01-27T03:26:39;9.48;;;4.80;;
25049;SDS011;13046;49.814;9.918;2024-01-27T03:29:05;14.05;;;4.28;;
25049;SDS011;13046;49.814;9.918;2024-01-27T03:31:31;10.15;;;4.55;;
25049;SDS011;13046;49.814;9.918;2024-01-27T03:33:58;11.00;;;4.25;;
25049;SDS011;13046;49.814;9.918;2024-01-27T03:36:24;6.15;;;3.97;;
25049;SDS011;13046;49.814;9.918;2024-01-27T03:38:51;11.30;;;4.68;;
25049;SDS011;13046;49.814;9.918;2024-01-27T03:41:17;9.07;;;4.35;;
25049;SDS011;13046;49.814;9.918;2024-01-27T03:43:43;9.30;;;3.92;;
25049;SDS011;13046;49.814;9.918;2024-01-27T03:46:09;8.18;;;4.35;;
25049;SDS011;13046;49.814;9.918;2024-01-27T03:48:35;11.07;;;4.45;;
25049;SDS011;13046;49.814;9.918;2024-01-27T03:51:01;11.77;;;4.95;;
25049;SDS011;13046;49.814;9.918;2024-01-27T03:53:28;8.43;;;5.30;;
25049;SDS011;13046;49.814;9.918;2024-01-27T03:55:54;9.98;;;4.47;;
25049;SDS011;13046;49.814;9.918;2024-01-27T03:58:23;8.40;;;4.63;;
25049;SDS011;13046;49.814;9.918;2024-01-27T04:00:49;6.63;;;4.63;;
25049;SDS011;13046;49.814;9.918;2024-01-27T04:03:15;5.50;;;4.32;;
25049;SDS011;13046;49.814;9.918;2024-01-27T04:05:42;13.93;;;5.13;;
25049;SDS011;13046;49.814;9.918;2024-01-27T04:08:08;9.02;;;4.40;;
25049;SDS011;13046;49.814;9.918;2024-01-27T04:10:34;10.40;;;4.68;;
25049;SDS011;13046;49.814;9.918;2024-01-27T04:13:00;4.82;;;4.00;;
25049;SDS011;13046;49.814;9.918;2024-01-27T04:15:26;5.70;;;3.83;;
25049;SDS011;13046;49.814;9.918;2024-01-27T04:17:52;13.40;;;4.90;;
25049;SDS011;13046;49.814;9.918;2024-01-27T04:20:19;9.63;;;4.35;;
25049;SDS011;13046;49.814;9.918;2024-01-27T04:22:45;6.57;;;4.30;;
25049;SDS011;13046;49.814;9.918;2024-01-27T04:25:12;7.93;;;4.10;;
25049;SDS011;13046;49.814;9.918;2024-01-27T04:27:38;12.30;;;4.80;;
25049;SDS011;13046;49.814;9.918;2024-01-27T04:30:05;6.65;;;4.45;;
25049;SDS011;13046;49.814;9.918;2024-01-27T04:32:32;10.23;;;4.05;;
25049;SDS011;13046;49.814;9.918;2024-01-27T04:34:58;6.90;;;4.45;;
25049;SDS011;13046;49.814;9.918;2024-01-27T04:37:24;10.02;;;4.68;;
25049;SDS011;13046;49.814;9.918;2024-01-27T04:39:50;12.05;;;4.60;;
25049;SDS011;13046;49.814;9.918;2024-01-27T04:42:16;11.63;;;6.13;;
25049;SDS011;13046;49.814;9.918;2024-01-27T04:44:42;13.02;;;4.43;;
25049;SDS011;13046;49.814;9.918;2024-01-27T04:47:08;9.05;;;4.93;;
25049;SDS011;13046;49.814;9.918;2024-01-27T04:49:35;10.70;;;5.25;;
25049;SDS011;13046;49.814;9.918;2024-01-27T04:52:01;10.95;;;4.13;;
25049;SDS011;13046;49.814;9.918;2024-01-27T04:54:27;8.23;;;4.70;;
25049;SDS011;13046;49.814;9.918;2024-01-27T04:56:53;9.27;;;4.95;;
25049;SDS011;13046;49.814;9.918;2024-01-27T04:59:19;9.13;;;4.60;;
25049;SDS011;13046;49.814;9.918;2024-01-27T05:01:45;8.10;;;4.25;;
25049;SDS011;13046;49.814;9.918;2024-01-27T05:04:12;13.35;;;6.18;;
25049;SDS011;13046;49.814;9.918;2024-01-27T05:06:38;16.10;;;6.57;;
25049;SDS011;13046;49.814;9.918;2024-01-27T05:09:04;12.15;;;5.18;;
25049;SDS011;13046;49.814;9.918;2024-01-27T05:11:31;8.65;;;4.97;;
25049;SDS011;13046;49.814;9.918;2024-01-27T05:13:58;8.05;;;5.38;;
25049;SDS011;13046;49.814;9.918;2024-01-27T05:16:24;10.32;;;4.75;;
25049;SDS011;13046;49.814;9.918;2024-01-27T05:18:50;8.38;;;4.40;;
25049;SDS011;13046;49.814;9.918;2024-01-27T05:21:16;12.02;;;4.90;;
25049;SDS011;13046;49.814;9.918;2024-01-27T05:23:42;14.98;;;5.60;;
25049;SDS011;13046;49.814;9.918;2024-01-27T05:26:08;10.45;;;5.50;;
25049;SDS011;13046;49.814;9.918;2024-01-27T05:28:36;7.60;;;5.00;;
25049;SDS011;13046;49.814;9.918;2024-01-27T05:31:03;9.38;;;5.47;;
25049;SDS011;13046;49.814;9.918;2024-01-27T05:33:29;11.55;;;7.03;;
25049;SDS011;13046;49.814;9.918;2024-01-27T05:35:55;11.48;;;6.22;;
25049;SDS011;13046;49.814;9.918;2024-01-27T05:38:21;17.77;;;6.72;;
25049;SDS011;13046;49.814;9.918;2024-01-27T05:40:47;10.75;;;6.50;;
25049;SDS011;13046;49.814;9.918;2024-01-27T05:43:15;10.68;;;6.80;;
25049;SDS011;13046;49.814;9.918;2024-01-27T05:45:42;12.63;;;7.30;;
25049;SDS011;13046;49.814;9.918;2024-01-27T05:48:08;13.85;;;6.70;;
25049;SDS011;13046;49.814;9.918;2024-01-27T05:50:34;13.10;;;7.10;;
25049;SDS011;13046;49.814;9.918;2024-01-27T05:53:00;14.63;;;8.20;;
25049;SDS011;13046;49.814;9.918;2024-01-27T05:55:27;15.90;;;8.38;;
25049;SDS011;13046;49.814;9.918;2024-01-27T05:57:53;17.70;;;9.05;;
25049;SDS011;13046;49.814;9.918;2024-01-27T06:00:20;16.58;;;8.02;;
25049;SDS011;13046;49.814;9.918;2024-01-27T06:02:46;18.67;;;9.35;;
25049;SDS011;13046;49.814;9.918;2024-01-27T06:05:12;17.10;;;9.60;;
25049;SDS011;13046;49.814;9.918;2024-01-27T06:07:38;20.63;;;12.43;;
25049;SDS011;13046;49.814;9.918;2024-01-27T06:10:07;22.15;;;13.32;;
25049;SDS011;13046;49.814;9.918;2024-01-27T06:12:33;17.88;;;10.82;;
25049;SDS011;13046;49.814;9.918;2024-01-27T06:14:59;18.25;;;9.70;;
25049;SDS011;13046;49.814;9.918;2024-01-27T06:17:26;15.88;;;9.23;;
25049;SDS011;13046;49.814;9.918;2024-01-27T06:19:52;18.02;;;8.95;;
25049;SDS011;13046;49.814;9.918;2024-01-27T06:22:18;15.98;;;9.35;;
25049;SDS011;13046;49.814;9.918;2024-01-27T06:24:44;15.57;;;10.57;;
25049;SDS011;13046;49.814;9.918;2024-01-27T06:27:11;15.98;;;9.27;;
25049;SDS011;13046;49.814;9.918;2024-01-27T06:29:37;20.38;;;9.63;;
25049;SDS011;13046;49.814;9.918;2024-01-27T06:32:05;19.40;;;8.18;;
25049;SDS011;13046;49.814;9.918;2024-01-27T06:34:31;16.67;;;8.02;;
25049;SDS011;13046;49.814;9.918;2024-01-27T06:36:58;14.25;;;8.55;;
25049;SDS011;13046;49.814;9.918;2024-01-27T06:39:24;17.05;;;9.15;;
25049;SDS011;13046;49.814;9.918;2024-01-27T06:41:50;13.90;;;8.00;;
25049;SDS011;13046;49.814;9.918;2024-01-27T06:44:16;14.85;;;8.18;;
25049;SDS011;13046;49.814;9.918;2024-01-27T06:46:42;17.92;;;9.40;;
25049;SDS011;13046;49.814;9.918;2024-01-27T06:49:10;15.32;;;8.07;;
25049;SDS011;13046;49.814;9.918;2024-01-27T06:51:36;14.45;;;9.68;;
25049;SDS011;13046;49.814;9.918;2024-01-27T06:54:02;14.65;;;8.13;;
25049;SDS011;13046;49.814;9.918;2024-01-27T06:56:28;11.82;;;6.90;;
25049;SDS011;13046;49.814;9.918;2024-01-27T06:58:54;9.70;;;7.50;;
25049;SDS011;13046;49.814;9.918;2024-01-27T07:01:21;15.75;;;8.77;;
25049;SDS011;13046;49.814;9.918;2024-01-27T07:03:47;19.10;;;9.07;;
25049;SDS011;13046;49.814;9.918;2024-01-27T07:06:13;18.55;;;9.70;;
25049;SDS011;13046;49.814;9.918;2024-01-27T07:08:39;13.23;;;8.32;;
25049;SDS011;13046;49.814;9.918;2024-01-27T07:11:05;16.90;;;10.23;;
25049;SDS011;13046;49.814;9.918;2024-01-27T07:13:31;19.27;;;9.88;;
25049;SDS011;13046;49.814;9.918;2024-01-27T07:15:57;15.57;;;10.18;;
25049;SDS011;13046;49.814;9.918;2024-01-27T07:18:23;16.33;;;9.75;;
25049;SDS011;13046;49.814;9.918;2024-01-27T07:20:50;15.75;;;8.07;;
25049;SDS011;13046;49.814;9.918;2024-01-27T07:23:17;15.63;;;8.50;;
25049;SDS011;13046;49.814;9.918;2024-01-27T07:25:43;18.73;;;9.38;;
25049;SDS011;13046;49.814;9.918;2024-01-27T07:28:10;23.42;;;12.07;;
25049;SDS011;13046;49.814;9.918;2024-01-27T07:30:36;18.50;;;11.77;;
25049;SDS011;13046;49.814;9.918;2024-01-27T07:33:03;26.15;;;15.02;;
25049;SDS011;13046;49.814;9.918;2024-01-27T07:35:29;19.70;;;15.18;;
25049;SDS011;13046;49.814;9.918;2024-01-27T07:37:57;23.17;;;14.05;;
25049;SDS011;13046;49.814;9.918;2024-01-27T07:40:23;24.67;;;15.20;;
25049;SDS011;13046;49.814;9.918;2024-01-27T07:42:49;33.63;;;22.42;;
25049;SDS011;13046;49.814;9.918;2024-01-27T07:45:15;33.13;;;20.27;;
25049;SDS011;13046;49.814;9.918;2024-01-27T07:47:41;46.50;;;30.08;;
25049;SDS011;13046;49.814;9.918;2024-01-27T07:50:07;57.08;;;31.38;;
25049;SDS011;13046;49.814;9.918;2024-01-27T07:52:34;47.65;;;28.90;;
25049;SDS011;13046;49.814;9.918;2024-01-27T07:55:01;74.43;;;44.03;;
25049;SDS011;13046;49.814;9.918;2024-01-27T07:57:27;45.88;;;31.65;;
25049;SDS011;13046;49.814;9.918;2024-01-27T07:59:53;45.85;;;31.95;;
25049;SDS011;13046;49.814;9.918;2024-01-27T08:02:19;66.03;;;39.83;;
25049;SDS011;13046;49.814;9.918;2024-01-27T08:04:46;75.05;;;50.15;;
25049;SDS011;13046;49.814;9.918;2024-01-27T08:07:12;64.57;;;46.50;;
25049;SDS011;13046;49.814;9.918;2024-01-27T08:09:40;61.35;;;41.75;;
25049;SDS011;13046;49.814;9.918;2024-01-27T08:12:06;71.90;;;46.05;;
25049;SDS011;13046;49.814;9.918;2024-01-27T08:14:32;65.22;;;43.22;;
25049;SDS011;13046;49.814;9.918;2024-01-27T08:17:00;61.20;;;45.30;;
25049;SDS011;13046;49.814;9.918;2024-01-27T08:19:28;54.80;;;43.15;;
25049;SDS011;13046;49.814;9.918;2024-01-27T08:21:54;43.50;;;30.02;;
25049;SDS011;13046;49.814;9.918;2024-01-27T08:24:20;33.17;;;25.73;;
25049;SDS011;13046;49.814;9.918;2024-01-27T08:26:49;31.33;;;24.50;;
25049;SDS011;13046;49.814;9.918;2024-01-27T08:29:15;37.30;;;25.25;;
25049;SDS011;13046;49.814;9.918;2024-01-27T08:31:41;33.05;;;24.30;;
25049;SDS011;13046;49.814;9.918;2024-01-27T08:34:07;28.75;;;18.63;;
25049;SDS011;13046;49.814;9.918;2024-01-27T08:36:34;23.58;;;14.75;;
25049;SDS011;13046;49.814;9.918;2024-01-27T08:39:00;24.77;;;15.63;;
25049;SDS011;13046;49.814;9.918;2024-01-27T08:41:26;21.15;;;12.80;;
25049;SDS011;13046;49.814;9.918;2024-01-27T08:43:52;313.83;;;49.50;;
25049;SDS011;13046;49.814;9.918;2024-01-27T08:46:18;44.00;;;14.73;;
25049;SDS011;13046;49.814;9.918;2024-01-27T08:48:47;65.93;;;18.65;;
25049;SDS011;13046;49.814;9.918;2024-01-27T08:51:13;38.30;;;14.25;;
25049;SDS011;13046;49.814;9.918;2024-01-27T08:53:41;17.77;;;12.02;;
25049;SDS011;13046;49.814;9.918;2024-01-27T08:56:07;18.20;;;10.45;;
25049;SDS011;13046;49.814;9.918;2024-01-27T08:58:34;28.35;;;16.58;;
25049;SDS011;13046;49.814;9.918;2024-01-27T09:01:00;23.95;;;14.20;;
25049;SDS011;13046;49.814;9.918;2024-01-27T09:03:30;23.10;;;16.83;;
25049;SDS011;13046;49.814;9.918;2024-01-27T09:05:56;38.88;;;20.02;;
25049;SDS011;13046;49.814;9.918;2024-01-27T09:08:22;25.15;;;15.77;;
25049;SDS011;13046;49.814;9.918;2024-01-27T09:10:48;28.73;;;16.40;;
25049;SDS011;13046;49.814;9.918;2024-01-27T09:13:15;149.93;;;32.97;;
25049;SDS011;13046;49.814;9.918;2024-01-27T09:15:42;33.42;;;18.77;;
25049;SDS011;13046;49.814;9.918;2024-01-27T09:18:08;30.38;;;17.02;;
25049;SDS011;13046;49.814;9.918;2024-01-27T09:20:34;25.55;;;18.30;;
25049;SDS011;13046;49.814;9.918;2024-01-27T09:23:00;23.85;;;16.23;;
25049;SDS011;13046;49.814;9.918;2024-01-27T09:25:26;30.95;;;25.08;;
25049;SDS011;13046;49.814;9.918;2024-01-27T09:27:53;31.48;;;23.98;;
25049;SDS011;13046;49.814;9.918;2024-01-27T09:30:20;27.23;;;17.50;;
25049;SDS011;13046;49.814;9.918;2024-01-27T09:32:46;24.33;;;19.40;;
25049;SDS011;13046;49.814;9.918;2024-01-27T09:35:12;24.17;;;18.30;;
25049;SDS011;13046;49.814;9.918;2024-01-27T09:37:38;32.10;;;19.75;;
25049;SDS011;13046;49.814;9.918;2024-01-27T09:40:05;22.27;;;9.43;;
25049;SDS011;13046;49.814;9.918;2024-01-27T09:42:31;19.77;;;8.48;;
25049;SDS011;13046;49.814;9.918;2024-01-27T09:45:00;19.63;;;9.77;;
25049;SDS011;13046;49.814;9.918;2024-01-27T09:47:27;18.60;;;7.68;;
25049;SDS011;13046;49.814;9.918;2024-01-27T09:49:53;15.23;;;6.65;;
25049;SDS011;13046;49.814;9.918;2024-01-27T09:52:19;14.70;;;6.47;;
25049;SDS011;13046;49.814;9.918;2024-01-27T09:54:45;14.35;;;6.03;;
25049;SDS011;13046;49.814;9.918;2024-01-27T09:57:12;15.73;;;7.70;;
25049;SDS011;13046;49.814;9.918;2024-01-27T09:59:39;9.60;;;4.72;;
25049;SDS011;13046;49.814;9.918;2024-01-27T10:02:10;14.57;;;6.15;;
25049;SDS011;13046;49.814;9.918;2024-01-27T10:04:38;13.90;;;4.70;;
25049;SDS011;13046;49.814;9.918;2024-01-27T10:07:04;7.97;;;4.47;;
25049;SDS011;13046;49.814;9.918;2024-01-27T10:09:30;9.55;;;5.03;;
25049;SDS011;13046;49.814;9.918;2024-01-27T10:11:56;16.98;;;4.75;;
25049;SDS011;13046;49.814;9.918;2024-01-27T10:14:23;15.82;;;6.15;;
25049;SDS011;13046;49.814;9.918;2024-01-27T10:16:49;12.20;;;4.78;;
25049;SDS011;13046;49.814;9.918;2024-01-27T10:19:15;17.67;;;7.55;;
25049;SDS011;13046;49.814;9.918;2024-01-27T10:21:46;11.65;;;4.97;;
25049;SDS011;13046;49.814;9.918;2024-01-27T10:24:12;14.65;;;4.32;;
25049;SDS011;13046;49.814;9.918;2024-01-27T10:26:38;11.35;;;4.50;;
25049;SDS011;13046;49.814;9.918;2024-01-27T10:29:05;9.75;;;4.32;;
25049;SDS011;13046;49.814;9.918;2024-01-27T10:31:33;7.97;;;4.22;;
25049;SDS011;13046;49.814;9.918;2024-01-27T10:33:59;12.00;;;4.72;;
25049;SDS011;13046;49.814;9.918;2024-01-27T10:36:41;11.07;;;4.22;;
25049;SDS011;13046;49.814;9.918;2024-01-27T10:39:20;17.95;;;6.25;;
25049;SDS011;13046;49.814;9.918;2024-01-27T10:41:48;16.10;;;5.15;;
25049;SDS011;13046;49.814;9.918;2024-01-27T10:44:15;15.73;;;5.50;;
25049;SDS011;13046;49.814;9.918;2024-01-27T10:46:45;15.02;;;5.45;;
25049;SDS011;13046;49.814;9.918;2024-01-27T10:49:12;11.15;;;6.35;;
25049;SDS011;13046;49.814;9.918;2024-01-27T10:51:42;30.77;;;24.67;;
25049;SDS011;13046;49.814;9.918;2024-01-27T10:54:08;10.20;;;5.43;;
25049;SDS011;13046;49.814;9.918;2024-01-27T10:56:36;11.35;;;4.20;;
25049;SDS011;13046;49.814;9.918;2024-01-27T10:59:04;12.45;;;4.60;;
25049;SDS011;13046;49.814;9.918;2024-01-27T11:01:30;13.90;;;5.38;;
25049;SDS011;13046;49.814;9.918;2024-01-27T11:04:00;11.20;;;4.97;;
25049;SDS011;13046;49.814;9.918;2024-01-27T11:06:28;15.00;;;6.10;;
25049;SDS011;13046;49.814;9.918;2024-01-27T11:08:55;12.05;;;4.35;;
25049;SDS011;13046;49.814;9.918;2024-01-27T11:11:21;14.90;;;5.90;;
25049;SDS011;13046;49.814;9.918;2024-01-27T11:13:48;15.00;;;4.85;;
25049;SDS011;13046;49.814;9.918;2024-01-27T11:16:16;14.25;;;5.20;;
25049;SDS011;13046;49.814;9.918;2024-01-27T11:18:43;10.02;;;4.07;;
25049;SDS011;13046;49.814;9.918;2024-01-27T11:21:15;12.98;;;4.30;;
25049;SDS011;13046;49.814;9.918;2024-01-27T11:23:42;8.93;;;3.60;;
25049;SDS011;13046;49.814;9.918;2024-01-27T11:26:09;14.18;;;4.95;;
25049;SDS011;13046;49.814;9.918;2024-01-27T11:28:35;15.77;;;5.18;;
25049;SDS011;13046;49.814;9.918;2024-01-27T11:31:05;11.45;;;4.20;;
25049;SDS011;13046;49.814;9.918;2024-01-27T11:33:32;10.27;;;4.65;;
25049;SDS011;13046;49.814;9.918;2024-01-27T11:36:01;10.00;;;4.55;;
25049;SDS011;13046;49.814;9.918;2024-01-27T11:38:28;15.52;;;4.90;;
25049;SDS011;13046;49.814;9.918;2024-01-27T11:40:54;9.30;;;4.03;;
25049;SDS011;13046;49.814;9.918;2024-01-27T11:43:20;16.70;;;4.90;;
25049;SDS011;13046;49.814;9.918;2024-01-27T11:45:56;9.63;;;4.45;;
25049;SDS011;13046;49.814;9.918;2024-01-27T11:48:23;18.42;;;4.28;;
25049;SDS011;13046;49.814;9.918;2024-01-27T11:51:00;14.10;;;3.58;;
25049;SDS011;13046;49.814;9.918;2024-01-27T11:53:26;14.77;;;4.20;;
25049;SDS011;13046;49.814;9.918;2024-01-27T11:55:55;13.18;;;5.68;;
25049;SDS011;13046;49.814;9.918;2024-01-27T11:58:21;19.58;;;8.43;;
25049;SDS011;13046;49.814;9.918;2024-01-27T12:00:47;17.08;;;4.03;;
25049;SDS011;13046;49.814;9.918;2024-01-27T12:03:13;13.23;;;4.32;;
25049;SDS011;13046;49.814;9.918;2024-01-27T12:05:39;13.73;;;4.93;;
25049;SDS011;13046;49.814;9.918;2024-01-27T12:08:07;14.50;;;4.68;;
25049;SDS011;13046;49.814;9.918;2024-01-27T12:10:33;17.92;;;4.35;;
25049;SDS011;13046;49.814;9.918;2024-01-27T12:13:02;15.07;;;6.03;;
25049;SDS011;13046;49.814;9.918;2024-01-27T12:15:29;17.08;;;6.45;;
25049;SDS011;13046;49.814;9.918;2024-01-27T12:17:55;10.85;;;4.00;;
25049;SDS011;13046;49.814;9.918;2024-01-27T12:20:24;14.10;;;4.70;;
25049;SDS011;13046;49.814;9.918;2024-01-27T12:22:50;12.30;;;4.03;;
25049;SDS011;13046;49.814;9.918;2024-01-27T12:25:27;13.35;;;5.07;;
25049;SDS011;13046;49.814;9.918;2024-01-27T12:27:53;15.45;;;3.70;;
25049;SDS011;13046;49.814;9.918;2024-01-27T12:30:20;10.75;;;3.85;;
25049;SDS011;13046;49.814;9.918;2024-01-27T12:32:47;11.73;;;4.30;;
25049;SDS011;13046;49.814;9.918;2024-01-27T12:35:13;11.75;;;3.83;;
25049;SDS011;13046;49.814;9.918;2024-01-27T12:37:39;9.85;;;4.07;;
25049;SDS011;13046;49.814;9.918;2024-01-27T12:42:44;19.98;;;4.70;;
25049;SDS011;13046;49.814;9.918;2024-01-27T12:45:10;18.58;;;4.85;;
25049;SDS011;13046;49.814;9.918;2024-01-27T12:47:36;17.33;;;4.97;;
25049;SDS011;13046;49.814;9.918;2024-01-27T12:50:02;11.43;;;3.67;;
25049;SDS011;13046;49.814;9.918;2024-01-27T12:52:28;15.07;;;6.18;;
25049;SDS011;13046;49.814;9.918;2024-01-27T12:54:54;17.50;;;4.22;;
25049;SDS011;13046;49.814;9.918;2024-01-27T12:57:20;9.40;;;4.03;;
25049;SDS011;13046;49.814;9.918;2024-01-27T12:59:47;14.38;;;5.00;;
25049;SDS011;13046;49.814;9.918;2024-01-27T13:02:13;11.77;;;4.28;;
25049;SDS011;13046;49.814;9.918;2024-01-27T13:04:40;12.38;;;3.15;;
25049;SDS011;13046;49.814;9.918;2024-01-27T13:07:06;11.55;;;3.78;;
25049;SDS011;13046;49.814;9.918;2024-01-27T13:09:33;10.13;;;4.75;;
25049;SDS011;13046;49.814;9.918;2024-01-27T13:11:59;16.08;;;6.18;;
25049;SDS011;13046;49.814;9.918;2024-01-27T13:14:25;16.50;;;3.97;;
25049;SDS011;13046;49.814;9.918;2024-01-27T13:16:51;8.30;;;4.03;;
25049;SDS011;13046;49.814;9.918;2024-01-27T13:19:19;12.02;;;4.55;;
25049;SDS011;13046;49.814;9.918;2024-01-27T13:21:45;22.00;;;4.00;;
25049;SDS011;13046;49.814;9.918;2024-01-27T13:24:11;11.20;;;3.60;;
25049;SDS011;13046;49.814;9.918;2024-01-27T13:26:38;9.48;;;3.42;;
25049;SDS011;13046;49.814;9.918;2024-01-27T13:29:05;11.93;;;3.20;;
25049;SDS011;13046;49.814;9.918;2024-01-27T13:31:31;14.63;;;5.28;;
25049;SDS011;13046;49.814;9.918;2024-01-27T13:33:58;14.82;;;6.05;;
25049;SDS011;13046;49.814;9.918;2024-01-27T13:36:27;5.97;;;2.95;;
25049;SDS011;13046;49.814;9.918;2024-01-27T13:38:53;16.33;;;5.03;;
25049;SDS011;13046;49.814;9.918;2024-01-27T13:41:19;12.10;;;4.03;;
25049;SDS011;13046;49.814;9.918;2024-01-27T13:43:45;11.23;;;3.60;;
25049;SDS011;13046;49.814;9.918;2024-01-27T13:46:11;12.23;;;4.40;;
25049;SDS011;13046;49.814;9.918;2024-01-27T13:48:38;20.05;;;5.80;;
25049;SDS011;13046;49.814;9.918;2024-01-27T13:51:04;8.52;;;3.33;;
25049;SDS011;13046;49.814;9.918;2024-01-27T13:53:30;14.45;;;4.32;;
25049;SDS011;13046;49.814;9.918;2024-01-27T13:55:56;13.15;;;3.72;;
25049;SDS011;13046;49.814;9.918;2024-01-27T13:58:22;14.48;;;3.83;;
25049;SDS011;13046;49.814;9.918;2024-01-27T14:00:48;9.73;;;3.22;;
25049;SDS011;13046;49.814;9.918;2024-01-27T14:03:14;10.35;;;3.50;;
25049;SDS011;13046;49.814;9.918;2024-01-27T14:05:40;13.98;;;4.32;;
25049;SDS011;13046;49.814;9.918;2024-01-27T14:08:08;16.17;;;4.65;;
25049;SDS011;13046;49.814;9.918;2024-01-27T14:10:35;18.73;;;4.20;;
25049;SDS011;13046;49.814;9.918;2024-01-27T14:13:01;14.65;;;4.63;;
25049;SDS011;13046;49.814;9.918;2024-01-27T14:15:34;14.60;;;5.63;;
25049;SDS011;13046;49.814;9.918;2024-01-27T14:18:00;13.00;;;3.60;;
25049;SDS011;13046;49.814;9.918;2024-01-27T14:20:26;10.38;;;3.08;;
25049;SDS011;13046;49.814;9.918;2024-01-27T14:22:54;9.80;;;3.47;;
25049;SDS011;13046;49.814;9.918;2024-01-27T14:25:21;9.77;;;3.47;;
25049;SDS011;13046;49.814;9.918;2024-01-27T14:27:47;12.55;;;4.07;;
25049;SDS011;13046;49.814;9.918;2024-01-27T14:30:14;7.80;;;3.10;;
25049;SDS011;13046;49.814;9.918;2024-01-27T14:32:40;11.32;;;3.28;;
25049;SDS011;13046;49.814;9.918;2024-01-27T14:35:06;10.30;;;3.20;;